sensor_id;sensor_type;location;lat;lon;timestamp;P1;durP1;ratioP1;P2;durP2;ratioP2
14358;SDS011;7263;49.418;11.064;2023-02-12T00:01:21;18.93;;;15.30;;
14358;SDS011;7263;49.418;11.064;2023-02-12T00:03:50;18.23;;;15.33;;
14358;SDS011;7263;49.418;11.064;2023-02-12T00:06:17;17.00;;;15.00;;
14358;SDS011;7263;49.418;11.064;2023-02-12T00:08:44;17.77;;;14.40;;
14358;SDS011;7263;49.418;11.064;2023-02-12T00:11:14;19.30;;;15.00;;
14358;SDS011;7263;49.418;11.064;2023-02-12T00:13:42;17.53;;;14.53;;
14358;SDS011;7263;49.418;11.064;2023-02-12T00:16:11;19.33;;;15.10;;
14358;SDS011;7263;49.418;11.064;2023-02-12T00:18:40;23.07;;;18.73;;
14358;SDS011;7263;49.418;11.064;2023-02-12T00:21:09;23.27;;;19.07;;
14358;SDS011;7263;49.418;11.064;2023-02-12T00:23:37;20.27;;;16.63;;
14358;SDS011;7263;49.418;11.064;2023-02-12T00:26:05;18.53;;;14.57;;
14358;SDS011;7263;49.418;11.064;2023-02-12T00:28:32;19.93;;;14.73;;
14358;SDS011;7263;49.418;11.064;2023-02-12T00:31:03;18.87;;;14.70;;
14358;SDS011;7263;49.418;11.064;2023-02-12T00:33:31;20.13;;;15.60;;
14358;SDS011;7263;49.418;11.064;2023-02-12T00:35:58;18.37;;;14.73;;
14358;SDS011;7263;49.418;11.064;2023-02-12T00:38:26;19.03;;;15.03;;
14358;SDS011;7263;49.418;11.064;2023-02-12T00:40:53;19.80;;;15.77;;
14358;SDS011;7263;49.418;11.064;2023-02-12T00:43:20;17.57;;;14.37;;
14358;SDS011;7263;49.418;11.064;2023-02-12T00:45:47;17.27;;;15.10;;
14358;SDS011;7263;49.418;11.064;2023-02-12T00:48:14;18.60;;;15.40;;
14358;SDS011;7263;49.418;11.064;2023-02-12T00:50:43;19.17;;;16.27;;
14358;SDS011;7263;49.418;11.064;2023-02-12T00:53:10;19.63;;;15.70;;
14358;SDS011;7263;49.418;11.064;2023-02-12T00:55:39;19.23;;;15.17;;
14358;SDS011;7263;49.418;11.064;2023-02-12T00:58:06;17.60;;;15.13;;
14358;SDS011;7263;49.418;11.064;2023-02-12T01:00:33;19.67;;;14.87;;
14358;SDS011;7263;49.418;11.064;2023-02-12T01:02:59;19.30;;;14.97;;
14358;SDS011;7263;49.418;11.064;2023-02-12T01:05:27;18.80;;;15.03;;
14358;SDS011;7263;49.418;11.064;2023-02-12T01:07:54;21.90;;;15.23;;
14358;SDS011;7263;49.418;11.064;2023-02-12T01:10:21;17.23;;;14.43;;
14358;SDS011;7263;49.418;11.064;2023-02-12T01:12:52;18.07;;;14.87;;
14358;SDS011;7263;49.418;11.064;2023-02-12T01:15:19;17.13;;;14.30;;
14358;SDS011;7263;49.418;11.064;2023-02-12T01:17:46;18.97;;;15.27;;
14358;SDS011;7263;49.418;11.064;2023-02-12T01:20:14;18.60;;;15.30;;
14358;SDS011;7263;49.418;11.064;2023-02-12T01:22:42;18.93;;;14.73;;
14358;SDS011;7263;49.418;11.064;2023-02-12T01:25:09;16.43;;;14.67;;
14358;SDS011;7263;49.418;11.064;2023-02-12T01:27:37;19.20;;;16.07;;
14358;SDS011;7263;49.418;11.064;2023-02-12T01:30:06;20.17;;;15.13;;
14358;SDS011;7263;49.418;11.064;2023-02-12T01:32:35;18.43;;;14.80;;
14358;SDS011;7263;49.418;11.064;2023-02-12T01:35:02;19.90;;;15.00;;
14358;SDS011;7263;49.418;11.064;2023-02-12T01:37:30;17.83;;;15.63;;
14358;SDS011;7263;49.418;11.064;2023-02-12T01:39:57;17.40;;;14.27;;
14358;SDS011;7263;49.418;11.064;2023-02-12T01:42:23;17.80;;;14.83;;
14358;SDS011;7263;49.418;11.064;2023-02-12T01:48:09;18.47;;;14.83;;
14358;SDS011;7263;49.418;11.064;2023-02-12T01:50:36;20.17;;;15.60;;
14358;SDS011;7263;49.418;11.064;2023-02-12T01:53:04;20.73;;;16.23;;
14358;SDS011;7263;49.418;11.064;2023-02-12T01:55:31;17.73;;;14.53;;
14358;SDS011;7263;49.418;11.064;2023-02-12T01:57:57;17.57;;;14.87;;
14358;SDS011;7263;49.418;11.064;2023-02-12T02:00:24;19.83;;;15.87;;
14358;SDS011;7263;49.418;11.064;2023-02-12T02:02:54;21.43;;;15.17;;
14358;SDS011;7263;49.418;11.064;2023-02-12T02:05:25;17.93;;;15.13;;
14358;SDS011;7263;49.418;11.064;2023-02-12T02:07:58;20.07;;;15.93;;
14358;SDS011;7263;49.418;11.064;2023-02-12T02:10:25;20.80;;;15.50;;
14358;SDS011;7263;49.418;11.064;2023-02-12T02:12:54;19.30;;;14.87;;
14358;SDS011;7263;49.418;11.064;2023-02-12T02:15:38;20.33;;;15.20;;
14358;SDS011;7263;49.418;11.064;2023-02-12T02:18:11;19.80;;;15.47;;
14358;SDS011;7263;49.418;11.064;2023-02-12T02:21:04;19.80;;;15.37;;
14358;SDS011;7263;49.418;11.064;2023-02-12T02:24:15;21.77;;;15.17;;
14358;SDS011;7263;49.418;11.064;2023-02-12T02:27:14;22.90;;;16.97;;
14358;SDS011;7263;49.418;11.064;2023-02-12T02:32:49;20.30;;;15.23;;
14358;SDS011;7263;49.418;11.064;2023-02-12T02:35:24;20.60;;;15.57;;
14358;SDS011;7263;49.418;11.064;2023-02-12T02:37:56;21.23;;;17.10;;
14358;SDS011;7263;49.418;11.064;2023-02-12T02:40:32;20.17;;;16.00;;
14358;SDS011;7263;49.418;11.064;2023-02-12T02:46:29;19.97;;;15.77;;
14358;SDS011;7263;49.418;11.064;2023-02-12T02:49:01;21.03;;;15.40;;
14358;SDS011;7263;49.418;11.064;2023-02-12T02:51:32;20.17;;;15.33;;
14358;SDS011;7263;49.418;11.064;2023-02-12T02:54:03;20.43;;;15.77;;
14358;SDS011;7263;49.418;11.064;2023-02-12T02:56:34;20.40;;;16.33;;
14358;SDS011;7263;49.418;11.064;2023-02-12T02:59:04;20.27;;;16.27;;
14358;SDS011;7263;49.418;11.064;2023-02-12T03:01:37;21.07;;;16.03;;
14358;SDS011;7263;49.418;11.064;2023-02-12T03:04:09;18.30;;;15.23;;
14358;SDS011;7263;49.418;11.064;2023-02-12T03:06:42;18.73;;;15.30;;
14358;SDS011;7263;49.418;11.064;2023-02-12T03:09:14;19.13;;;15.67;;
14358;SDS011;7263;49.418;11.064;2023-02-12T03:11:44;19.90;;;15.47;;
14358;SDS011;7263;49.418;11.064;2023-02-12T03:14:12;21.30;;;15.57;;
14358;SDS011;7263;49.418;11.064;2023-02-12T03:16:47;18.70;;;15.07;;
14358;SDS011;7263;49.418;11.064;2023-02-12T03:19:20;19.27;;;15.20;;
14358;SDS011;7263;49.418;11.064;2023-02-12T03:21:51;20.20;;;15.73;;
14358;SDS011;7263;49.418;11.064;2023-02-12T03:24:23;19.53;;;15.47;;
14358;SDS011;7263;49.418;11.064;2023-02-12T03:26:54;20.47;;;15.20;;
14358;SDS011;7263;49.418;11.064;2023-02-12T03:29:27;17.37;;;15.13;;
14358;SDS011;7263;49.418;11.064;2023-02-12T03:31:57;19.93;;;16.13;;
14358;SDS011;7263;49.418;11.064;2023-02-12T03:34:33;21.33;;;16.73;;
14358;SDS011;7263;49.418;11.064;2023-02-12T03:37:07;21.10;;;16.43;;
14358;SDS011;7263;49.418;11.064;2023-02-12T03:39:42;22.70;;;17.20;;
14358;SDS011;7263;49.418;11.064;2023-02-12T03:42:15;21.83;;;15.93;;
14358;SDS011;7263;49.418;11.064;2023-02-12T03:44:51;21.73;;;15.97;;
14358;SDS011;7263;49.418;11.064;2023-02-12T03:47:24;22.37;;;16.27;;
14358;SDS011;7263;49.418;11.064;2023-02-12T03:49:58;22.03;;;16.80;;
14358;SDS011;7263;49.418;11.064;2023-02-12T03:52:27;21.97;;;16.40;;
14358;SDS011;7263;49.418;11.064;2023-02-12T03:54:55;21.67;;;16.47;;
14358;SDS011;7263;49.418;11.064;2023-02-12T03:57:23;20.27;;;16.03;;
14358;SDS011;7263;49.418;11.064;2023-02-12T03:59:54;21.03;;;16.20;;
14358;SDS011;7263;49.418;11.064;2023-02-12T04:02:24;21.47;;;16.77;;
14358;SDS011;7263;49.418;11.064;2023-02-12T04:04:51;20.73;;;16.47;;
14358;SDS011;7263;49.418;11.064;2023-02-12T04:07:18;20.13;;;16.00;;
14358;SDS011;7263;49.418;11.064;2023-02-12T04:09:45;21.40;;;17.13;;
14358;SDS011;7263;49.418;11.064;2023-02-12T04:12:20;20.07;;;16.73;;
14358;SDS011;7263;49.418;11.064;2023-02-12T04:15:00;21.40;;;17.07;;
14358;SDS011;7263;49.418;11.064;2023-02-12T04:17:52;21.17;;;16.83;;
14358;SDS011;7263;49.418;11.064;2023-02-12T04:20:25;21.23;;;17.03;;
14358;SDS011;7263;49.418;11.064;2023-02-12T04:23:06;20.37;;;15.73;;
14358;SDS011;7263;49.418;11.064;2023-02-12T04:25:43;21.33;;;17.23;;
14358;SDS011;7263;49.418;11.064;2023-02-12T04:28:21;20.60;;;16.03;;
14358;SDS011;7263;49.418;11.064;2023-02-12T04:30:54;21.10;;;15.97;;
14358;SDS011;7263;49.418;11.064;2023-02-12T04:33:26;21.50;;;17.10;;
14358;SDS011;7263;49.418;11.064;2023-02-12T04:36:00;21.43;;;16.67;;
14358;SDS011;7263;49.418;11.064;2023-02-12T04:38:33;22.83;;;17.23;;
14358;SDS011;7263;49.418;11.064;2023-02-12T04:41:03;21.77;;;16.60;;
14358;SDS011;7263;49.418;11.064;2023-02-12T04:43:32;19.10;;;16.23;;
14358;SDS011;7263;49.418;11.064;2023-02-12T04:46:00;21.97;;;16.27;;
14358;SDS011;7263;49.418;11.064;2023-02-12T04:48:28;22.30;;;17.43;;
14358;SDS011;7263;49.418;11.064;2023-02-12T04:50:55;19.00;;;16.77;;
14358;SDS011;7263;49.418;11.064;2023-02-12T04:53:22;21.43;;;16.10;;
14358;SDS011;7263;49.418;11.064;2023-02-12T04:55:49;20.47;;;16.10;;
14358;SDS011;7263;49.418;11.064;2023-02-12T04:58:16;20.90;;;16.17;;
14358;SDS011;7263;49.418;11.064;2023-02-12T05:00:43;19.10;;;15.60;;
14358;SDS011;7263;49.418;11.064;2023-02-12T05:03:10;18.47;;;15.07;;
14358;SDS011;7263;49.418;11.064;2023-02-12T05:05:38;19.07;;;15.73;;
14358;SDS011;7263;49.418;11.064;2023-02-12T05:08:04;22.20;;;16.77;;
14358;SDS011;7263;49.418;11.064;2023-02-12T05:10:31;22.23;;;16.80;;
14358;SDS011;7263;49.418;11.064;2023-02-12T05:12:58;20.37;;;15.50;;
14358;SDS011;7263;49.418;11.064;2023-02-12T05:15:25;21.03;;;16.57;;
14358;SDS011;7263;49.418;11.064;2023-02-12T05:17:51;21.10;;;17.03;;
14358;SDS011;7263;49.418;11.064;2023-02-12T05:20:18;20.20;;;16.10;;
14358;SDS011;7263;49.418;11.064;2023-02-12T05:22:47;23.70;;;16.37;;
14358;SDS011;7263;49.418;11.064;2023-02-12T05:25:17;22.27;;;17.90;;
14358;SDS011;7263;49.418;11.064;2023-02-12T05:27:44;24.00;;;18.23;;
14358;SDS011;7263;49.418;11.064;2023-02-12T05:30:11;25.27;;;18.10;;
14358;SDS011;7263;49.418;11.064;2023-02-12T05:32:38;22.03;;;17.53;;
14358;SDS011;7263;49.418;11.064;2023-02-12T05:35:05;22.70;;;17.37;;
14358;SDS011;7263;49.418;11.064;2023-02-12T05:37:33;22.57;;;17.13;;
14358;SDS011;7263;49.418;11.064;2023-02-12T05:40:01;22.80;;;17.27;;
14358;SDS011;7263;49.418;11.064;2023-02-12T05:42:29;24.20;;;18.07;;
14358;SDS011;7263;49.418;11.064;2023-02-12T05:44:56;22.97;;;17.73;;
14358;SDS011;7263;49.418;11.064;2023-02-12T05:47:23;23.40;;;18.23;;
14358;SDS011;7263;49.418;11.064;2023-02-12T05:49:50;21.90;;;16.83;;
14358;SDS011;7263;49.418;11.064;2023-02-12T05:52:17;23.67;;;17.80;;
14358;SDS011;7263;49.418;11.064;2023-02-12T05:54:43;22.93;;;18.33;;
14358;SDS011;7263;49.418;11.064;2023-02-12T06:00:33;22.43;;;17.67;;
14358;SDS011;7263;49.418;11.064;2023-02-12T06:03:00;23.20;;;17.87;;
14358;SDS011;7263;49.418;11.064;2023-02-12T06:05:27;24.67;;;18.20;;
14358;SDS011;7263;49.418;11.064;2023-02-12T06:07:53;25.23;;;17.97;;
14358;SDS011;7263;49.418;11.064;2023-02-12T06:10:20;25.23;;;18.80;;
14358;SDS011;7263;49.418;11.064;2023-02-12T06:12:47;24.77;;;18.33;;
14358;SDS011;7263;49.418;11.064;2023-02-12T06:15:19;25.00;;;18.57;;
14358;SDS011;7263;49.418;11.064;2023-02-12T06:17:47;24.77;;;18.47;;
14358;SDS011;7263;49.418;11.064;2023-02-12T06:20:14;27.83;;;19.30;;
14358;SDS011;7263;49.418;11.064;2023-02-12T06:22:41;25.40;;;18.83;;
14358;SDS011;7263;49.418;11.064;2023-02-12T06:25:08;25.97;;;20.70;;
14358;SDS011;7263;49.418;11.064;2023-02-12T06:27:34;23.20;;;18.90;;
14358;SDS011;7263;49.418;11.064;2023-02-12T06:30:01;23.90;;;20.37;;
14358;SDS011;7263;49.418;11.064;2023-02-12T06:32:28;29.60;;;20.47;;
14358;SDS011;7263;49.418;11.064;2023-02-12T06:34:56;24.57;;;18.67;;
14358;SDS011;7263;49.418;11.064;2023-02-12T06:37:23;25.33;;;19.20;;
14358;SDS011;7263;49.418;11.064;2023-02-12T06:39:50;24.13;;;19.30;;
14358;SDS011;7263;49.418;11.064;2023-02-12T06:42:16;24.43;;;19.67;;
14358;SDS011;7263;49.418;11.064;2023-02-12T06:44:43;25.83;;;20.03;;
14358;SDS011;7263;49.418;11.064;2023-02-12T06:47:11;26.37;;;19.23;;
14358;SDS011;7263;49.418;11.064;2023-02-12T06:49:38;26.03;;;19.77;;
14358;SDS011;7263;49.418;11.064;2023-02-12T06:52:07;24.47;;;18.00;;
14358;SDS011;7263;49.418;11.064;2023-02-12T06:54:34;24.33;;;19.17;;
14358;SDS011;7263;49.418;11.064;2023-02-12T06:57:00;26.57;;;18.57;;
14358;SDS011;7263;49.418;11.064;2023-02-12T06:59:28;25.53;;;19.43;;
14358;SDS011;7263;49.418;11.064;2023-02-12T07:01:55;24.40;;;17.97;;
14358;SDS011;7263;49.418;11.064;2023-02-12T07:04:22;24.77;;;19.30;;
14358;SDS011;7263;49.418;11.064;2023-02-12T07:06:49;25.13;;;19.03;;
14358;SDS011;7263;49.418;11.064;2023-02-12T07:09:17;25.40;;;18.97;;
14358;SDS011;7263;49.418;11.064;2023-02-12T07:11:44;23.23;;;18.33;;
14358;SDS011;7263;49.418;11.064;2023-02-12T07:14:12;25.27;;;18.63;;
14358;SDS011;7263;49.418;11.064;2023-02-12T07:16:40;23.60;;;17.67;;
14358;SDS011;7263;49.418;11.064;2023-02-12T07:19:08;24.57;;;19.10;;
14358;SDS011;7263;49.418;11.064;2023-02-12T07:21:36;24.27;;;17.77;;
14358;SDS011;7263;49.418;11.064;2023-02-12T07:24:03;23.73;;;18.97;;
14358;SDS011;7263;49.418;11.064;2023-02-12T07:26:31;22.67;;;18.07;;
14358;SDS011;7263;49.418;11.064;2023-02-12T07:28:58;22.80;;;17.50;;
14358;SDS011;7263;49.418;11.064;2023-02-12T07:31:25;23.20;;;18.67;;
14358;SDS011;7263;49.418;11.064;2023-02-12T07:33:55;25.13;;;18.10;;
14358;SDS011;7263;49.418;11.064;2023-02-12T07:36:24;22.70;;;18.27;;
14358;SDS011;7263;49.418;11.064;2023-02-12T07:38:53;22.00;;;17.90;;
14358;SDS011;7263;49.418;11.064;2023-02-12T07:41:20;26.40;;;18.53;;
14358;SDS011;7263;49.418;11.064;2023-02-12T07:43:54;23.20;;;17.90;;
14358;SDS011;7263;49.418;11.064;2023-02-12T07:46:24;24.23;;;18.77;;
14358;SDS011;7263;49.418;11.064;2023-02-12T07:48:54;25.27;;;18.37;;
14358;SDS011;7263;49.418;11.064;2023-02-12T07:51:21;25.33;;;20.27;;
14358;SDS011;7263;49.418;11.064;2023-02-12T07:53:48;30.67;;;23.67;;
14358;SDS011;7263;49.418;11.064;2023-02-12T07:56:16;28.17;;;20.37;;
14358;SDS011;7263;49.418;11.064;2023-02-12T07:58:45;24.00;;;19.10;;
14358;SDS011;7263;49.418;11.064;2023-02-12T08:01:15;30.37;;;20.07;;
14358;SDS011;7263;49.418;11.064;2023-02-12T08:03:45;25.77;;;19.03;;
14358;SDS011;7263;49.418;11.064;2023-02-12T08:06:13;27.27;;;19.97;;
14358;SDS011;7263;49.418;11.064;2023-02-12T08:08:41;26.53;;;19.70;;
14358;SDS011;7263;49.418;11.064;2023-02-12T08:11:08;25.60;;;20.00;;
14358;SDS011;7263;49.418;11.064;2023-02-12T08:13:37;27.77;;;20.93;;
14358;SDS011;7263;49.418;11.064;2023-02-12T08:16:05;28.37;;;20.30;;
14358;SDS011;7263;49.418;11.064;2023-02-12T08:18:34;25.40;;;19.47;;
14358;SDS011;7263;49.418;11.064;2023-02-12T08:21:02;28.60;;;21.50;;
14358;SDS011;7263;49.418;11.064;2023-02-12T08:23:30;27.30;;;20.23;;
14358;SDS011;7263;49.418;11.064;2023-02-12T08:26:03;28.07;;;20.63;;
14358;SDS011;7263;49.418;11.064;2023-02-12T08:28:31;27.57;;;20.70;;
14358;SDS011;7263;49.418;11.064;2023-02-12T08:31:08;26.80;;;19.80;;
14358;SDS011;7263;49.418;11.064;2023-02-12T08:33:37;27.13;;;19.70;;
14358;SDS011;7263;49.418;11.064;2023-02-12T08:36:05;26.23;;;19.30;;
14358;SDS011;7263;49.418;11.064;2023-02-12T08:38:33;27.43;;;20.20;;
14358;SDS011;7263;49.418;11.064;2023-02-12T08:41:01;28.43;;;20.70;;
14358;SDS011;7263;49.418;11.064;2023-02-12T08:43:29;28.27;;;20.87;;
14358;SDS011;7263;49.418;11.064;2023-02-12T08:46:05;25.83;;;20.07;;
14358;SDS011;7263;49.418;11.064;2023-02-12T08:48:33;26.37;;;20.03;;
14358;SDS011;7263;49.418;11.064;2023-02-12T08:51:05;23.97;;;19.63;;
14358;SDS011;7263;49.418;11.064;2023-02-12T08:53:34;24.70;;;19.03;;
14358;SDS011;7263;49.418;11.064;2023-02-12T08:56:01;27.27;;;19.90;;
14358;SDS011;7263;49.418;11.064;2023-02-12T08:58:28;25.77;;;19.77;;
14358;SDS011;7263;49.418;11.064;2023-02-12T09:00:55;26.57;;;18.93;;
14358;SDS011;7263;49.418;11.064;2023-02-12T09:03:22;28.37;;;19.07;;
14358;SDS011;7263;49.418;11.064;2023-02-12T09:05:49;26.40;;;19.33;;
14358;SDS011;7263;49.418;11.064;2023-02-12T09:08:18;28.90;;;19.97;;
14358;SDS011;7263;49.418;11.064;2023-02-12T09:10:44;31.70;;;21.30;;
14358;SDS011;7263;49.418;11.064;2023-02-12T09:13:12;29.97;;;21.10;;
14358;SDS011;7263;49.418;11.064;2023-02-12T09:15:39;27.40;;;19.13;;
14358;SDS011;7263;49.418;11.064;2023-02-12T09:18:07;28.93;;;19.73;;
14358;SDS011;7263;49.418;11.064;2023-02-12T09:20:36;28.83;;;20.27;;
14358;SDS011;7263;49.418;11.064;2023-02-12T09:23:03;29.47;;;20.17;;
14358;SDS011;7263;49.418;11.064;2023-02-12T09:25:32;30.07;;;20.03;;
14358;SDS011;7263;49.418;11.064;2023-02-12T09:27:59;27.27;;;20.40;;
14358;SDS011;7263;49.418;11.064;2023-02-12T09:30:26;28.03;;;20.40;;
14358;SDS011;7263;49.418;11.064;2023-02-12T09:32:53;28.00;;;19.87;;
14358;SDS011;7263;49.418;11.064;2023-02-12T09:35:20;24.97;;;19.47;;
14358;SDS011;7263;49.418;11.064;2023-02-12T09:37:47;27.23;;;20.07;;
14358;SDS011;7263;49.418;11.064;2023-02-12T09:40:16;31.67;;;22.33;;
14358;SDS011;7263;49.418;11.064;2023-02-12T09:42:56;27.77;;;20.37;;
14358;SDS011;7263;49.418;11.064;2023-02-12T09:45:31;30.43;;;20.73;;
14358;SDS011;7263;49.418;11.064;2023-02-12T09:48:04;25.97;;;20.20;;
14358;SDS011;7263;49.418;11.064;2023-02-12T09:50:41;26.47;;;21.53;;
14358;SDS011;7263;49.418;11.064;2023-02-12T09:53:13;28.73;;;21.53;;
14358;SDS011;7263;49.418;11.064;2023-02-12T09:55:44;28.33;;;20.70;;
14358;SDS011;7263;49.418;11.064;2023-02-12T09:58:13;26.00;;;20.43;;
14358;SDS011;7263;49.418;11.064;2023-02-12T10:00:42;26.27;;;20.50;;
14358;SDS011;7263;49.418;11.064;2023-02-12T10:03:10;27.20;;;20.83;;
14358;SDS011;7263;49.418;11.064;2023-02-12T10:05:40;27.97;;;20.80;;
14358;SDS011;7263;49.418;11.064;2023-02-12T10:08:14;26.43;;;20.03;;
14358;SDS011;7263;49.418;11.064;2023-02-12T10:10:55;28.40;;;20.60;;
14358;SDS011;7263;49.418;11.064;2023-02-12T10:13:38;26.93;;;19.43;;
14358;SDS011;7263;49.418;11.064;2023-02-12T10:16:14;24.53;;;18.53;;
14358;SDS011;7263;49.418;11.064;2023-02-12T10:19:03;23.87;;;17.77;;
14358;SDS011;7263;49.418;11.064;2023-02-12T10:21:42;22.97;;;17.83;;
14358;SDS011;7263;49.418;11.064;2023-02-12T10:24:24;24.53;;;17.23;;
14358;SDS011;7263;49.418;11.064;2023-02-12T10:27:02;20.63;;;15.60;;
14358;SDS011;7263;49.418;11.064;2023-02-12T10:29:38;21.13;;;14.93;;
14358;SDS011;7263;49.418;11.064;2023-02-12T10:32:10;20.70;;;15.83;;
14358;SDS011;7263;49.418;11.064;2023-02-12T10:34:45;19.33;;;15.63;;
14358;SDS011;7263;49.418;11.064;2023-02-12T10:37:15;21.20;;;16.03;;
14358;SDS011;7263;49.418;11.064;2023-02-12T10:39:51;26.77;;;18.57;;
14358;SDS011;7263;49.418;11.064;2023-02-12T10:42:23;27.00;;;19.30;;
14358;SDS011;7263;49.418;11.064;2023-02-12T10:44:58;30.63;;;21.33;;
14358;SDS011;7263;49.418;11.064;2023-02-12T10:47:25;15.80;;;12.33;;
14358;SDS011;7263;49.418;11.064;2023-02-12T10:49:55;19.83;;;14.93;;
14358;SDS011;7263;49.418;11.064;2023-02-12T10:52:28;20.43;;;16.27;;
14358;SDS011;7263;49.418;11.064;2023-02-12T10:55:01;21.60;;;15.00;;
14358;SDS011;7263;49.418;11.064;2023-02-12T10:57:28;23.03;;;17.17;;
14358;SDS011;7263;49.418;11.064;2023-02-12T10:59:56;26.23;;;18.37;;
14358;SDS011;7263;49.418;11.064;2023-02-12T11:02:58;19.77;;;16.07;;
14358;SDS011;7263;49.418;11.064;2023-02-12T11:05:30;20.53;;;15.90;;
14358;SDS011;7263;49.418;11.064;2023-02-12T11:07:59;19.13;;;14.90;;
14358;SDS011;7263;49.418;11.064;2023-02-12T11:10:27;22.17;;;17.23;;
14358;SDS011;7263;49.418;11.064;2023-02-12T11:12:55;24.00;;;19.00;;
14358;SDS011;7263;49.418;11.064;2023-02-12T11:15:26;24.17;;;18.50;;
14358;SDS011;7263;49.418;11.064;2023-02-12T11:17:57;21.13;;;17.90;;
14358;SDS011;7263;49.418;11.064;2023-02-12T11:20:26;24.47;;;18.00;;
14358;SDS011;7263;49.418;11.064;2023-02-12T11:22:55;26.10;;;19.60;;
14358;SDS011;7263;49.418;11.064;2023-02-12T11:25:24;26.90;;;20.10;;
14358;SDS011;7263;49.418;11.064;2023-02-12T11:28:04;26.07;;;19.03;;
14358;SDS011;7263;49.418;11.064;2023-02-12T11:30:46;26.37;;;18.63;;
14358;SDS011;7263;49.418;11.064;2023-02-12T11:33:20;27.40;;;19.50;;
14358;SDS011;7263;49.418;11.064;2023-02-12T11:35:50;25.73;;;20.83;;
14358;SDS011;7263;49.418;11.064;2023-02-12T11:38:29;26.03;;;19.03;;
14358;SDS011;7263;49.418;11.064;2023-02-12T11:40:59;26.23;;;18.93;;
14358;SDS011;7263;49.418;11.064;2023-02-12T11:43:33;27.63;;;20.80;;
14358;SDS011;7263;49.418;11.064;2023-02-12T11:46:05;26.23;;;19.83;;
14358;SDS011;7263;49.418;11.064;2023-02-12T11:48:34;27.87;;;20.73;;
14358;SDS011;7263;49.418;11.064;2023-02-12T11:51:03;22.60;;;17.90;;
14358;SDS011;7263;49.418;11.064;2023-02-12T11:53:34;23.43;;;18.77;;
14358;SDS011;7263;49.418;11.064;2023-02-12T11:56:06;27.33;;;19.93;;
14358;SDS011;7263;49.418;11.064;2023-02-12T11:58:34;26.50;;;19.80;;
14358;SDS011;7263;49.418;11.064;2023-02-12T12:01:03;25.30;;;19.80;;
14358;SDS011;7263;49.418;11.064;2023-02-12T12:03:36;26.33;;;18.43;;
14358;SDS011;7263;49.418;11.064;2023-02-12T12:06:13;25.90;;;18.93;;
14358;SDS011;7263;49.418;11.064;2023-02-12T12:08:49;28.07;;;20.63;;
14358;SDS011;7263;49.418;11.064;2023-02-12T12:11:23;21.73;;;17.37;;
14358;SDS011;7263;49.418;11.064;2023-02-12T12:13:56;22.87;;;17.57;;
14358;SDS011;7263;49.418;11.064;2023-02-12T12:16:29;23.10;;;16.63;;
14358;SDS011;7263;49.418;11.064;2023-02-12T12:19:20;24.10;;;16.33;;
14358;SDS011;7263;49.418;11.064;2023-02-12T12:22:15;25.67;;;19.17;;
14358;SDS011;7263;49.418;11.064;2023-02-12T12:24:52;25.60;;;19.17;;
14358;SDS011;7263;49.418;11.064;2023-02-12T12:27:24;24.67;;;18.43;;
14358;SDS011;7263;49.418;11.064;2023-02-12T12:30:18;28.17;;;19.53;;
14358;SDS011;7263;49.418;11.064;2023-02-12T12:32:51;24.30;;;18.60;;
14358;SDS011;7263;49.418;11.064;2023-02-12T12:35:24;23.03;;;17.83;;
14358;SDS011;7263;49.418;11.064;2023-02-12T12:38:02;25.43;;;18.40;;
14358;SDS011;7263;49.418;11.064;2023-02-12T12:40:38;24.23;;;18.27;;
14358;SDS011;7263;49.418;11.064;2023-02-12T12:43:16;25.50;;;18.83;;
14358;SDS011;7263;49.418;11.064;2023-02-12T12:45:57;23.73;;;18.40;;
14358;SDS011;7263;49.418;11.064;2023-02-12T12:48:53;22.70;;;18.03;;
14358;SDS011;7263;49.418;11.064;2023-02-12T12:51:37;24.50;;;18.70;;
14358;SDS011;7263;49.418;11.064;2023-02-12T12:54:23;25.20;;;18.50;;
14358;SDS011;7263;49.418;11.064;2023-02-12T12:57:04;25.17;;;19.03;;
14358;SDS011;7263;49.418;11.064;2023-02-12T12:59:49;25.00;;;18.67;;
14358;SDS011;7263;49.418;11.064;2023-02-12T13:05:44;24.03;;;18.37;;
14358;SDS011;7263;49.418;11.064;2023-02-12T13:08:27;39.53;;;31.30;;
14358;SDS011;7263;49.418;11.064;2023-02-12T13:11:08;30.20;;;22.63;;
14358;SDS011;7263;49.418;11.064;2023-02-12T13:13:45;22.83;;;17.30;;
14358;SDS011;7263;49.418;11.064;2023-02-12T13:16:15;22.13;;;17.47;;
14358;SDS011;7263;49.418;11.064;2023-02-12T13:18:48;22.53;;;17.77;;
14358;SDS011;7263;49.418;11.064;2023-02-12T13:21:28;24.37;;;17.97;;
14358;SDS011;7263;49.418;11.064;2023-02-12T13:24:04;25.57;;;18.70;;
14358;SDS011;7263;49.418;11.064;2023-02-12T13:26:41;25.43;;;18.57;;
14358;SDS011;7263;49.418;11.064;2023-02-12T13:29:14;24.07;;;18.33;;
14358;SDS011;7263;49.418;11.064;2023-02-12T13:31:46;23.60;;;17.67;;
14358;SDS011;7263;49.418;11.064;2023-02-12T13:34:16;22.60;;;18.57;;
14358;SDS011;7263;49.418;11.064;2023-02-12T13:36:46;23.33;;;17.97;;
14358;SDS011;7263;49.418;11.064;2023-02-12T13:39:15;28.27;;;20.57;;
14358;SDS011;7263;49.418;11.064;2023-02-12T13:41:52;27.03;;;19.47;;
14358;SDS011;7263;49.418;11.064;2023-02-12T13:44:26;22.93;;;17.77;;
14358;SDS011;7263;49.418;11.064;2023-02-12T13:46:59;22.23;;;17.53;;
14358;SDS011;7263;49.418;11.064;2023-02-12T13:49:38;21.87;;;17.70;;
14358;SDS011;7263;49.418;11.064;2023-02-12T13:52:15;23.87;;;18.10;;
14358;SDS011;7263;49.418;11.064;2023-02-12T13:54:48;22.67;;;17.60;;
14358;SDS011;7263;49.418;11.064;2023-02-12T13:57:23;23.57;;;17.83;;
14358;SDS011;7263;49.418;11.064;2023-02-12T13:59:50;23.37;;;16.93;;
14358;SDS011;7263;49.418;11.064;2023-02-12T14:05:20;21.90;;;16.90;;
14358;SDS011;7263;49.418;11.064;2023-02-12T14:07:54;22.23;;;17.07;;
14358;SDS011;7263;49.418;11.064;2023-02-12T14:10:24;23.37;;;15.90;;
14358;SDS011;7263;49.418;11.064;2023-02-12T14:13:07;22.33;;;16.57;;
14358;SDS011;7263;49.418;11.064;2023-02-12T14:15:38;21.17;;;16.30;;
14358;SDS011;7263;49.418;11.064;2023-02-12T14:18:20;24.80;;;17.77;;
14358;SDS011;7263;49.418;11.064;2023-02-12T14:27:18;23.57;;;17.33;;
14358;SDS011;7263;49.418;11.064;2023-02-12T14:29:59;20.87;;;15.50;;
14358;SDS011;7263;49.418;11.064;2023-02-12T14:41:26;21.80;;;16.63;;
14358;SDS011;7263;49.418;11.064;2023-02-12T14:53:22;24.43;;;17.43;;
14358;SDS011;7263;49.418;11.064;2023-02-12T14:55:54;23.20;;;16.83;;
14358;SDS011;7263;49.418;11.064;2023-02-12T14:58:22;26.90;;;19.70;;
14358;SDS011;7263;49.418;11.064;2023-02-12T15:00:51;22.87;;;16.37;;
14358;SDS011;7263;49.418;11.064;2023-02-12T15:03:30;25.47;;;16.90;;
14358;SDS011;7263;49.418;11.064;2023-02-12T15:06:08;23.77;;;17.40;;
14358;SDS011;7263;49.418;11.064;2023-02-12T15:08:40;25.50;;;18.97;;
14358;SDS011;7263;49.418;11.064;2023-02-12T15:11:18;25.70;;;16.97;;
14358;SDS011;7263;49.418;11.064;2023-02-12T15:13:51;27.07;;;18.67;;
14358;SDS011;7263;49.418;11.064;2023-02-12T15:16:22;25.20;;;17.43;;
14358;SDS011;7263;49.418;11.064;2023-02-12T15:18:56;22.33;;;16.30;;
14358;SDS011;7263;49.418;11.064;2023-02-12T15:21:27;24.20;;;16.83;;
14358;SDS011;7263;49.418;11.064;2023-02-12T15:23:58;25.20;;;17.30;;
14358;SDS011;7263;49.418;11.064;2023-02-12T15:26:27;24.87;;;18.40;;
14358;SDS011;7263;49.418;11.064;2023-02-12T15:28:56;22.17;;;17.50;;